sensor_id;sensor_type;location;lat;lon;timestamp;pressure;altitude;pressure_sealevel;temperature;humidity
54600;BME280;40500;51.084;16.958;2022-12-07T00:01:18;99909.20;;;1.79;100.00
54600;BME280;40500;51.084;16.958;2022-12-07T00:04:09;99909.21;;;1.80;100.00
54600;BME280;40500;51.084;16.958;2022-12-07T00:07:04;99907.29;;;1.79;100.00
54600;BME280;40500;51.084;16.958;2022-12-07T00:09:35;99907.83;;;1.78;100.00
54600;BME280;40500;51.084;16.958;2022-12-07T00:12:29;99906.27;;;1.79;100.00
54600;BME280;40500;51.084;16.958;2022-12-07T00:15:19;99905.23;;;1.78;100.00
54600;BME280;40500;51.084;16.958;2022-12-07T00:18:00;99896.41;;;1.78;100.00
54600;BME280;40500;51.084;16.958;2022-12-07T00:20:32;99897.46;;;1.79;100.00
54600;BME280;40500;51.084;16.958;2022-12-07T00:23:27;99889.36;;;1.79;100.00
54600;BME280;40500;51.084;16.958;2022-12-07T00:26:18;99887.30;;;1.81;100.00
54600;BME280;40500;51.084;16.958;2022-12-07T00:28:55;99885.05;;;1.80;100.00
54600;BME280;40500;51.084;16.958;2022-12-07T00:31:49;99881.41;;;1.78;100.00
54600;BME280;40500;51.084;16.958;2022-12-07T00:34:46;99881.23;;;1.78;100.00
54600;BME280;40500;51.084;16.958;2022-12-07T00:37:35;99880.00;;;1.77;100.00
54600;BME280;40500;51.084;16.958;2022-12-07T00:40:31;99877.91;;;1.75;100.00
54600;BME280;40500;51.084;16.958;2022-12-07T00:43:16;99875.83;;;1.73;100.00
54600;BME280;40500;51.084;16.958;2022-12-07T00:45:49;99873.58;;;1.72;100.00
54600;BME280;40500;51.084;16.958;2022-12-07T00:48:36;99874.77;;;1.72;100.00
54600;BME280;40500;51.084;16.958;2022-12-07T00:51:11;99873.55;;;1.71;100.00
54600;BME280;40500;51.084;16.958;2022-12-07T00:53:50;99873.39;;;1.71;100.00
54600;BME280;40500;51.084;16.958;2022-12-07T00:56:24;99878.39;;;1.71;100.00
54600;BME280;40500;51.084;16.958;2022-12-07T00:59:15;99885.29;;;1.70;100.00
54600;BME280;40500;51.084;16.958;2022-12-07T01:02:05;99885.27;;;1.69;100.00
54600;BME280;40500;51.084;16.958;2022-12-07T01:04:56;99886.81;;;1.68;100.00
54600;BME280;40500;51.084;16.958;2022-12-07T01:07:38;99890.94;;;1.68;100.00
54600;BME280;40500;51.084;16.958;2022-12-07T01:10:27;99890.42;;;1.66;100.00
54600;BME280;40500;51.084;16.958;2022-12-07T01:13:19;99890.76;;;1.65;100.00
54600;BME280;40500;51.084;16.958;2022-12-07T01:16:14;99889.37;;;1.65;100.00
54600;BME280;40500;51.084;16.958;2022-12-07T01:19:05;99883.98;;;1.63;100.00
54600;BME280;40500;51.084;16.958;2022-12-07T01:21:40;99883.11;;;1.63;100.00
54600;BME280;40500;51.084;16.958;2022-12-07T01:24:11;99881.04;;;1.62;100.00
54600;BME280;40500;51.084;16.958;2022-12-07T01:27:01;99879.83;;;1.62;100.00
54600;BME280;40500;51.084;16.958;2022-12-07T01:29:33;99876.55;;;1.61;100.00
54600;BME280;40500;51.084;16.958;2022-12-07T01:32:16;99878.45;;;1.62;100.00
54600;BME280;40500;51.084;16.958;2022-12-07T01:35:08;99876.55;;;1.62;100.00
54600;BME280;40500;51.084;16.958;2022-12-07T01:37:52;99879.65;;;1.61;100.00
54600;BME280;40500;51.084;16.958;2022-12-07T01:40:26;99880.52;;;1.61;100.00
54600;BME280;40500;51.084;16.958;2022-12-07T01:43:17;99877.91;;;1.60;100.00
54600;BME280;40500;51.084;16.958;2022-12-07T01:46:07;99878.94;;;1.59;100.00
54600;BME280;40500;51.084;16.958;2022-12-07T01:49:02;99879.10;;;1.58;100.00
54600;BME280;40500;51.084;16.958;2022-12-07T01:52:00;99876.86;;;1.58;100.00
54600;BME280;40500;51.084;16.958;2022-12-07T01:54:57;99879.09;;;1.57;100.00
54600;BME280;40500;51.084;16.958;2022-12-07T01:57:36;99880.64;;;1.57;100.00
54600;BME280;40500;51.084;16.958;2022-12-07T02:00:26;99878.02;;;1.54;100.00
54600;BME280;40500;51.084;16.958;2022-12-07T02:03:20;99880.75;;;1.52;100.00
54600;BME280;40500;51.084;16.958;2022-12-07T02:06:13;99880.73;;;1.49;100.00
54600;BME280;40500;51.084;16.958;2022-12-07T02:08:47;99879.98;;;1.46;100.00
54600;BME280;40500;51.084;16.958;2022-12-07T02:11:39;99880.50;;;1.45;100.00
54600;BME280;40500;51.084;16.958;2022-12-07T02:14:32;99880.65;;;1.44;100.00
54600;BME280;40500;51.084;16.958;2022-12-07T02:20:24;99879.38;;;1.38;100.00
54600;BME280;40500;51.084;16.958;2022-12-07T02:23:38;99874.35;;;1.37;100.00
54600;BME280;40500;51.084;16.958;2022-12-07T02:27:01;99876.55;;;1.33;100.00
54600;BME280;40500;51.084;16.958;2022-12-07T02:29:43;99879.80;;;1.31;100.00
54600;BME280;40500;51.084;16.958;2022-12-07T02:32:46;99878.06;;;1.30;100.00
54600;BME280;40500;51.084;16.958;2022-12-07T02:35:41;99883.05;;;1.29;100.00
54600;BME280;40500;51.084;16.958;2022-12-07T02:38:37;99880.98;;;1.29;100.00
54600;BME280;40500;51.084;16.958;2022-12-07T02:41:42;99885.98;;;1.29;100.00
54600;BME280;40500;51.084;16.958;2022-12-07T02:44:16;99882.02;;;1.29;100.00
54600;BME280;40500;51.084;16.958;2022-12-07T02:47:09;99880.97;;;1.28;100.00
54600;BME280;40500;51.084;16.958;2022-12-07T02:50:05;99874.92;;;1.28;100.00
54600;BME280;40500;51.084;16.958;2022-12-07T02:52:56;99873.91;;;1.29;100.00
54600;BME280;40500;51.084;16.958;2022-12-07T02:55:47;99872.52;;;1.29;100.00
54600;BME280;40500;51.084;16.958;2022-12-07T02:58:30;99873.05;;;1.30;100.00
54600;BME280;40500;51.084;16.958;2022-12-07T03:01:30;99873.55;;;1.28;100.00
54600;BME280;40500;51.084;16.958;2022-12-07T03:04:36;99870.29;;;1.29;100.00
54600;BME280;40500;51.084;16.958;2022-12-07T03:07:33;99870.13;;;1.30;100.00
54600;BME280;40500;51.084;16.958;2022-12-07T03:10:31;99868.56;;;1.30;100.00
54600;BME280;40500;51.084;16.958;2022-12-07T03:13:11;99868.73;;;1.29;100.00
54600;BME280;40500;51.084;16.958;2022-12-07T03:16:15;99865.09;;;1.28;100.00
54600;BME280;40500;51.084;16.958;2022-12-07T03:18:51;99865.62;;;1.28;100.00
54600;BME280;40500;51.084;16.958;2022-12-07T03:21:47;99861.82;;;1.28;100.00
54600;BME280;40500;51.084;16.958;2022-12-07T03:24:41;99860.61;;;1.28;100.00
54600;BME280;40500;51.084;16.958;2022-12-07T03:27:25;99860.95;;;1.27;100.00
54600;BME280;40500;51.084;16.958;2022-12-07T03:30:22;99861.48;;;1.28;100.00
54600;BME280;40500;51.084;16.958;2022-12-07T03:33:17;99858.56;;;1.30;100.00
54600;BME280;40500;51.084;16.958;2022-12-07T03:36:16;99855.98;;;1.29;100.00
54600;BME280;40500;51.084;16.958;2022-12-07T03:39:00;99853.92;;;1.31;100.00
54600;BME280;40500;51.084;16.958;2022-12-07T03:42:04;99856.01;;;1.32;100.00
54600;BME280;40500;51.084;16.958;2022-12-07T03:44:57;99852.56;;;1.32;100.00
54600;BME280;40500;51.084;16.958;2022-12-07T03:47:32;99847.73;;;1.32;100.00
54600;BME280;40500;51.084;16.958;2022-12-07T03:50:12;99843.58;;;1.31;100.00
54600;BME280;40500;51.084;16.958;2022-12-07T03:52:58;99843.07;;;1.33;100.00
54600;BME280;40500;51.084;16.958;2022-12-07T03:55:37;99838.79;;;1.34;100.00
54600;BME280;40500;51.084;16.958;2022-12-07T03:58:38;99834.98;;;1.34;100.00
54600;BME280;40500;51.084;16.958;2022-12-07T04:01:56;99829.98;;;1.34;100.00
54600;BME280;40500;51.084;16.958;2022-12-07T04:04:46;99835.70;;;1.36;100.00
54600;BME280;40500;51.084;16.958;2022-12-07T04:07:38;99839.83;;;1.35;100.00
54600;BME280;40500;51.084;16.958;2022-12-07T04:10:30;99841.73;;;1.34;100.00
54600;BME280;40500;51.084;16.958;2022-12-07T04:13:23;99841.03;;;1.34;100.00
54600;BME280;40500;51.084;16.958;2022-12-07T04:16:23;99843.44;;;1.34;100.00
54600;BME280;40500;51.084;16.958;2022-12-07T04:19:19;99841.20;;;1.34;100.00
54600;BME280;40500;51.084;16.958;2022-12-07T04:22:01;99843.98;;;1.36;100.00
54600;BME280;40500;51.084;16.958;2022-12-07T04:24:59;99843.44;;;1.34;100.00
54600;BME280;40500;51.084;16.958;2022-12-07T04:27:53;99844.98;;;1.33;100.00
54600;BME280;40500;51.084;16.958;2022-12-07T04:30:33;99840.64;;;1.30;100.00
54600;BME280;40500;51.084;16.958;2022-12-07T04:33:27;99842.02;;;1.30;100.00
54600;BME280;40500;51.084;16.958;2022-12-07T04:35:58;99838.73;;;1.30;100.00
54600;BME280;40500;51.084;16.958;2022-12-07T04:38:52;99836.14;;;1.29;100.00
54600;BME280;40500;51.084;16.958;2022-12-07T04:41:44;99837.69;;;1.29;100.00
54600;BME280;40500;51.084;16.958;2022-12-07T04:44:36;99835.63;;;1.30;100.00
54600;BME280;40500;51.084;16.958;2022-12-07T04:47:24;99835.48;;;1.32;100.00
54600;BME280;40500;51.084;16.958;2022-12-07T04:49:55;99834.79;;;1.33;100.00
54600;BME280;40500;51.084;16.958;2022-12-07T04:52:53;99830.50;;;1.34;100.00
54600;BME280;40500;51.084;16.958;2022-12-07T04:55:25;99829.13;;;1.34;100.00
54600;BME280;40500;51.084;16.958;2022-12-07T04:58:16;99831.89;;;1.34;100.00
54600;BME280;40500;51.084;16.958;2022-12-07T05:00:49;99828.95;;;1.34;100.00
54600;BME280;40500;51.084;16.958;2022-12-07T05:03:43;99828.96;;;1.36;100.00
54600;BME280;40500;51.084;16.958;2022-12-07T05:06:36;99829.16;;;1.37;100.00
54600;BME280;40500;51.084;16.958;2022-12-07T05:09:32;99829.53;;;1.39;100.00
54600;BME280;40500;51.084;16.958;2022-12-07T05:12:22;99828.52;;;1.41;100.00
54600;BME280;40500;51.084;16.958;2022-12-07T05:15:10;99826.46;;;1.43;100.00
54600;BME280;40500;51.084;16.958;2022-12-07T05:18:02;99830.27;;;1.43;100.00
54600;BME280;40500;51.084;16.958;2022-12-07T05:21:00;99825.96;;;1.43;100.00
54600;BME280;40500;51.084;16.958;2022-12-07T05:23:49;99830.27;;;1.43;100.00
54600;BME280;40500;51.084;16.958;2022-12-07T05:26:42;99830.10;;;1.43;100.00
54600;BME280;40500;51.084;16.958;2022-12-07T05:29:17;99823.02;;;1.43;100.00
54600;BME280;40500;51.084;16.958;2022-12-07T05:31:46;99826.30;;;1.44;100.00
54600;BME280;40500;51.084;16.958;2022-12-07T05:34:36;99829.93;;;1.44;100.00
54600;BME280;40500;51.084;16.958;2022-12-07T05:37:24;99832.88;;;1.46;100.00
54600;BME280;40500;51.084;16.958;2022-12-07T05:39:55;99832.72;;;1.47;100.00
54600;BME280;40500;51.084;16.958;2022-12-07T05:42:27;99834.98;;;1.47;100.00
54600;BME280;40500;51.084;16.958;2022-12-07T05:45:16;99835.33;;;1.49;100.00
54600;BME280;40500;51.084;16.958;2022-12-07T05:47:50;99830.86;;;1.51;100.00
54600;BME280;40500;51.084;16.958;2022-12-07T05:50:19;99836.05;;;1.51;100.00
54600;BME280;40500;51.084;16.958;2022-12-07T05:53:00;99839.34;;;1.53;100.00
54600;BME280;40500;51.084;16.958;2022-12-07T05:55:37;99832.98;;;1.53;100.00
54600;BME280;40500;51.084;16.958;2022-12-07T05:58:29;99833.34;;;1.54;100.00
54600;BME280;40500;51.084;16.958;2022-12-07T06:01:15;99833.67;;;1.54;100.00
54600;BME280;40500;51.084;16.958;2022-12-07T06:04:06;99838.50;;;1.54;100.00
54600;BME280;40500;51.084;16.958;2022-12-07T06:07:00;99837.46;;;1.54;100.00
54600;BME280;40500;51.084;16.958;2022-12-07T06:09:32;99833.84;;;1.53;100.00
54600;BME280;40500;51.084;16.958;2022-12-07T06:12:06;99831.60;;;1.54;100.00
54600;BME280;40500;51.084;16.958;2022-12-07T06:14:52;99833.84;;;1.54;100.00
54600;BME280;40500;51.084;16.958;2022-12-07T06:17:27;99830.21;;;1.53;100.00
54600;BME280;40500;51.084;16.958;2022-12-07T06:19:58;99830.56;;;1.54;100.00
54600;BME280;40500;51.084;16.958;2022-12-07T06:22:27;99828.85;;;1.54;100.00
54600;BME280;40500;51.084;16.958;2022-12-07T06:25:05;99828.67;;;1.55;100.00
54600;BME280;40500;51.084;16.958;2022-12-07T06:28:00;99822.81;;;1.55;100.00
54600;BME280;40500;51.084;16.958;2022-12-07T06:31:01;99822.64;;;1.55;100.00
54600;BME280;40500;51.084;16.958;2022-12-07T06:33:32;99822.13;;;1.55;100.00
54600;BME280;40500;51.084;16.958;2022-12-07T06:36:16;99819.02;;;1.55;100.00
54600;BME280;40500;51.084;16.958;2022-12-07T06:39:14;99817.30;;;1.56;100.00
54600;BME280;40500;51.084;16.958;2022-12-07T06:42:03;99820.58;;;1.56;100.00
54600;BME280;40500;51.084;16.958;2022-12-07T06:45:01;99823.36;;;1.57;100.00
54600;BME280;40500;51.084;16.958;2022-12-07T06:51:16;99822.33;;;1.57;100.00
54600;BME280;40500;51.084;16.958;2022-12-07T06:54:13;99824.23;;;1.58;100.00
54600;BME280;40500;51.084;16.958;2022-12-07T06:57:10;99825.97;;;1.60;100.00
54600;BME280;40500;51.084;16.958;2022-12-07T06:59:39;99828.21;;;1.61;100.00
54600;BME280;40500;51.084;16.958;2022-12-07T07:02:07;99829.45;;;1.62;100.00
54600;BME280;40500;51.084;16.958;2022-12-07T07:04:34;99830.98;;;1.62;100.00
54600;BME280;40500;51.084;16.958;2022-12-07T07:07:02;99829.95;;;1.63;100.00
54600;BME280;40500;51.084;16.958;2022-12-07T07:09:30;99828.27;;;1.64;100.00
54600;BME280;40500;51.084;16.958;2022-12-07T07:11:58;99827.23;;;1.64;100.00
54600;BME280;40500;51.084;16.958;2022-12-07T07:14:26;99826.55;;;1.64;100.00
54600;BME280;40500;51.084;16.958;2022-12-07T07:16:53;99827.74;;;1.64;100.00
54600;BME280;40500;51.084;16.958;2022-12-07T07:19:21;99823.24;;;1.63;100.00
54600;BME280;40500;51.084;16.958;2022-12-07T07:21:49;99823.23;;;1.63;100.00
54600;BME280;40500;51.084;16.958;2022-12-07T07:24:17;99823.75;;;1.63;100.00
54600;BME280;40500;51.084;16.958;2022-12-07T07:26:44;99826.17;;;1.63;100.00
54600;BME280;40500;51.084;16.958;2022-12-07T07:29:14;99821.54;;;1.64;100.00
54600;BME280;40500;51.084;16.958;2022-12-07T07:31:44;99824.50;;;1.66;100.00
54600;BME280;40500;51.084;16.958;2022-12-07T07:34:13;99819.52;;;1.69;100.00
54600;BME280;40500;51.084;16.958;2022-12-07T07:36:41;99817.84;;;1.74;100.00
54600;BME280;40500;51.084;16.958;2022-12-07T07:39:10;99812.88;;;1.79;100.00
54600;BME280;40500;51.084;16.958;2022-12-07T07:41:39;99814.84;;;1.85;100.00
54600;BME280;40500;51.084;16.958;2022-12-07T07:44:08;99818.85;;;1.89;100.00
54600;BME280;40500;51.084;16.958;2022-12-07T07:46:37;99816.80;;;1.90;100.00
54600;BME280;40500;51.084;16.958;2022-12-07T07:49:04;99815.23;;;1.90;100.00
54600;BME280;40500;51.084;16.958;2022-12-07T07:51:33;99813.01;;;1.90;100.00
54600;BME280;40500;51.084;16.958;2022-12-07T07:54:01;99812.35;;;1.95;100.00
54600;BME280;40500;51.084;16.958;2022-12-07T07:56:28;99816.19;;;2.00;100.00
54600;BME280;40500;51.084;16.958;2022-12-07T07:58:56;99812.39;;;2.01;100.00
54600;BME280;40500;51.084;16.958;2022-12-07T08:01:25;99817.92;;;2.00;100.00
54600;BME280;40500;51.084;16.958;2022-12-07T08:03:53;99818.61;;;2.01;100.00
54600;BME280;40500;51.084;16.958;2022-12-07T08:06:21;99820.82;;;1.96;100.00
54600;BME280;40500;51.084;16.958;2022-12-07T08:08:48;99824.05;;;1.91;100.00
54600;BME280;40500;51.084;16.958;2022-12-07T08:11:16;99829.70;;;1.86;100.00
54600;BME280;40500;51.084;16.958;2022-12-07T08:13:45;99826.36;;;1.80;100.00
54600;BME280;40500;51.084;16.958;2022-12-07T08:16:14;99827.16;;;1.74;100.00
54600;BME280;40500;51.084;16.958;2022-12-07T08:18:45;99826.27;;;1.71;100.00
54600;BME280;40500;51.084;16.958;2022-12-07T08:21:14;99825.38;;;1.68;100.00
54600;BME280;40500;51.084;16.958;2022-12-07T08:23:42;99827.43;;;1.66;100.00
54600;BME280;40500;51.084;16.958;2022-12-07T08:26:14;99825.54;;;1.67;100.00
54600;BME280;40500;51.084;16.958;2022-12-07T08:28:43;99824.73;;;1.73;100.00
54600;BME280;40500;51.084;16.958;2022-12-07T08:31:15;99822.70;;;1.77;100.00
54600;BME280;40500;51.084;16.958;2022-12-07T08:33:54;99817.91;;;1.82;100.00
54600;BME280;40500;51.084;16.958;2022-12-07T08:36:24;99817.80;;;1.87;100.00
54600;BME280;40500;51.084;16.958;2022-12-07T08:38:53;99818.17;;;1.91;100.00
54600;BME280;40500;51.084;16.958;2022-12-07T08:41:41;99813.89;;;1.93;100.00
54600;BME280;40500;51.084;16.958;2022-12-07T08:44:09;99814.61;;;1.96;100.00
54600;BME280;40500;51.084;16.958;2022-12-07T08:46:39;99810.85;;;2.02;100.00
54600;BME280;40500;51.084;16.958;2022-12-07T08:49:10;99811.92;;;2.06;100.00
54600;BME280;40500;51.084;16.958;2022-12-07T08:51:39;99808.51;;;2.08;100.00
54600;BME280;40500;51.084;16.958;2022-12-07T08:54:11;99803.04;;;2.16;100.00
54600;BME280;40500;51.084;16.958;2022-12-07T08:56:40;99797.40;;;2.25;100.00
54600;BME280;40500;51.084;16.958;2022-12-07T08:59:08;99804.23;;;2.36;100.00
54600;BME280;40500;51.084;16.958;2022-12-07T09:01:37;99797.59;;;2.50;100.00
54600;BME280;40500;51.084;16.958;2022-12-07T09:04:05;99795.44;;;2.63;100.00
54600;BME280;40500;51.084;16.958;2022-12-07T09:06:33;99795.84;;;2.72;100.00
54600;BME280;40500;51.084;16.958;2022-12-07T09:09:02;99795.02;;;2.81;100.00
54600;BME280;40500;51.084;16.958;2022-12-07T09:11:31;99789.68;;;2.84;100.00
54600;BME280;40500;51.084;16.958;2022-12-07T09:13:58;99787.81;;;2.91;100.00
54600;BME280;40500;51.084;16.958;2022-12-07T09:16:29;99784.08;;;3.03;100.00
54600;BME280;40500;51.084;16.958;2022-12-07T09:18:57;99784.81;;;3.12;100.00
54600;BME280;40500;51.084;16.958;2022-12-07T09:21:28;99779.63;;;3.17;100.00
54600;BME280;40500;51.084;16.958;2022-12-07T09:23:55;99779.68;;;3.27;100.00
54600;BME280;40500;51.084;16.958;2022-12-07T09:26:23;99775.21;;;3.37;100.00
54600;BME280;40500;51.084;16.958;2022-12-07T09:28:53;99772.30;;;3.47;100.00
54600;BME280;40500;51.084;16.958;2022-12-07T09:31:22;99764.52;;;3.52;100.00
54600;BME280;40500;51.084;16.958;2022-12-07T09:33:56;99763.84;;;3.56;100.00
54600;BME280;40500;51.084;16.958;2022-12-07T09:36:26;99761.41;;;3.58;100.00
54600;BME280;40500;51.084;16.958;2022-12-07T09:38:54;99758.13;;;3.57;100.00
54600;BME280;40500;51.084;16.958;2022-12-07T09:41:24;99751.02;;;3.58;100.00
54600;BME280;40500;51.084;16.958;2022-12-07T09:44:02;99748.43;;;3.61;100.00
54600;BME280;40500;51.084;16.958;2022-12-07T09:46:35;99745.31;;;3.57;98.83
54600;BME280;40500;51.084;16.958;2022-12-07T09:49:05;99743.92;;;3.52;95.44
54600;BME280;40500;51.084;16.958;2022-12-07T09:51:36;99740.11;;;3.48;93.40
54600;BME280;40500;51.084;16.958;2022-12-07T09:54:05;99737.51;;;3.45;93.43
54600;BME280;40500;51.084;16.958;2022-12-07T09:56:37;99738.73;;;3.45;93.49
54600;BME280;40500;51.084;16.958;2022-12-07T09:59:16;99732.84;;;3.50;93.84
54600;BME280;40500;51.084;16.958;2022-12-07T10:01:47;99730.95;;;3.60;94.60
54600;BME280;40500;51.084;16.958;2022-12-07T10:04:18;99721.27;;;3.71;94.82
54600;BME280;40500;51.084;16.958;2022-12-07T10:06:46;99718.85;;;3.78;95.35
54600;BME280;40500;51.084;16.958;2022-12-07T10:09:16;99719.36;;;3.81;95.56
54600;BME280;40500;51.084;16.958;2022-12-07T10:12:02;99715.23;;;3.87;95.80
54600;BME280;40500;51.084;16.958;2022-12-07T10:14:32;99711.23;;;3.90;95.64
54600;BME280;40500;51.084;16.958;2022-12-07T10:17:34;99703.79;;;3.84;95.02
54600;BME280;40500;51.084;16.958;2022-12-07T10:20:18;99698.93;;;3.79;94.72
54600;BME280;40500;51.084;16.958;2022-12-07T10:22:58;99696.51;;;3.72;94.70
54600;BME280;40500;51.084;16.958;2022-12-07T10:25:31;99695.64;;;3.65;94.76
54600;BME280;40500;51.084;16.958;2022-12-07T10:28:03;99694.27;;;3.62;95.03
54600;BME280;40500;51.084;16.958;2022-12-07T10:30:49;99692.34;;;3.60;95.47
54600;BME280;40500;51.084;16.958;2022-12-07T10:33:33;99697.88;;;3.60;95.32
54600;BME280;40500;51.084;16.958;2022-12-07T10:36:17;99696.67;;;3.55;94.76
54600;BME280;40500;51.084;16.958;2022-12-07T10:38:47;99689.75;;;3.50;93.74
54600;BME280;40500;51.084;16.958;2022-12-07T10:41:16;99690.95;;;3.47;93.22
54600;BME280;40500;51.084;16.958;2022-12-07T10:43:49;99691.46;;;3.46;93.31
54600;BME280;40500;51.084;16.958;2022-12-07T10:46:49;99691.64;;;3.47;92.90
54600;BME280;40500;51.084;16.958;2022-12-07T10:49:38;99693.02;;;3.47;91.29
54600;BME280;40500;51.084;16.958;2022-12-07T10:52:12;99692.67;;;3.46;90.20
54600;BME280;40500;51.084;16.958;2022-12-07T10:54:53;99702.89;;;3.43;90.28
54600;BME280;40500;51.084;16.958;2022-12-07T10:57:40;99706.16;;;3.37;90.32
54600;BME280;40500;51.084;16.958;2022-12-07T11:00:17;99709.08;;;3.29;90.52
54600;BME280;40500;51.084;16.958;2022-12-07T11:03:21;99710.82;;;3.22;91.65
54600;BME280;40500;51.084;16.958;2022-12-07T11:05:56;99712.14;;;3.11;93.03
54600;BME280;40500;51.084;16.958;2022-12-07T11:08:39;99710.91;;;3.03;94.20
54600;BME280;40500;51.084;16.958;2022-12-07T11:11:14;99706.05;;;2.96;95.19
54600;BME280;40500;51.084;16.958;2022-12-07T11:13:48;99702.41;;;2.92;95.90
54600;BME280;40500;51.084;16.958;2022-12-07T11:16:32;99696.86;;;2.91;96.34
54600;BME280;40500;51.084;16.958;2022-12-07T11:19:12;99690.30;;;2.93;97.14
54600;BME280;40500;51.084;16.958;2022-12-07T11:21:48;99691.34;;;2.95;97.53
54600;BME280;40500;51.084;16.958;2022-12-07T11:24:27;99692.23;;;2.98;98.00
54600;BME280;40500;51.084;16.958;2022-12-07T11:27:16;99684.61;;;3.00;98.37
54600;BME280;40500;51.084;16.958;2022-12-07T11:30:09;99682.89;;;3.03;98.47
54600;BME280;40500;51.084;16.958;2022-12-07T11:35:42;99674.94;;;3.03;98.76
54600;BME280;40500;51.084;16.958;2022-12-07T11:38:23;99666.81;;;3.04;99.13
54600;BME280;40500;51.084;16.958;2022-12-07T11:41:00;99672.70;;;3.07;99.03
54600;BME280;40500;51.084;16.958;2022-12-07T11:43:48;99670.81;;;3.12;98.80
54600;BME280;40500;51.084;16.958;2022-12-07T11:46:18;99676.54;;;3.16;98.58
54600;BME280;40500;51.084;16.958;2022-12-07T11:48:52;99679.12;;;3.16;98.81
54600;BME280;40500;51.084;16.958;2022-12-07T11:51:24;99673.23;;;3.14;98.41
54600;BME280;40500;51.084;16.958;2022-12-07T11:54:03;99673.23;;;3.13;98.79
54600;BME280;40500;51.084;16.958;2022-12-07T11:56:35;99674.10;;;3.14;99.21
54600;BME280;40500;51.084;16.958;2022-12-07T11:59:09;99677.20;;;3.11;99.20
54600;BME280;40500;51.084;16.958;2022-12-07T12:01:46;99675.81;;;3.06;99.83
54600;BME280;40500;51.084;16.958;2022-12-07T12:04:27;99679.25;;;3.02;100.00
54600;BME280;40500;51.084;16.958;2022-12-07T12:06:56;99676.49;;;3.00;100.00
54600;BME280;40500;51.084;16.958;2022-12-07T12:09:51;99677.35;;;2.98;100.00
54600;BME280;40500;51.084;16.958;2022-12-07T12:12:45;99677.34;;;2.96;100.00
54600;BME280;40500;51.084;16.958;2022-12-07T12:15:46;99674.73;;;2.93;100.00
54600;BME280;40500;51.084;16.958;2022-12-07T12:18:46;99669.38;;;2.95;100.00
54600;BME280;40500;51.084;16.958;2022-12-07T12:21:22;99665.41;;;2.97;100.00
54600;BME280;40500;51.084;16.958;2022-12-07T12:23:57;99666.65;;;3.06;100.00
54600;BME280;40500;51.084;16.958;2022-12-07T12:26:28;99667.70;;;3.11;100.00
54600;BME280;40500;51.084;16.958;2022-12-07T12:29:00;99667.69;;;3.11;100.00
54600;BME280;40500;51.084;16.958;2022-12-07T12:31:38;99670.80;;;3.10;100.00
54600;BME280;40500;51.084;16.958;2022-12-07T12:34:31;99669.77;;;3.09;100.00
54600;BME280;40500;51.084;16.958;2022-12-07T12:36:59;99664.58;;;3.08;100.00
54600;BME280;40500;51.084;16.958;2022-12-07T12:39:27;99663.70;;;3.08;100.00
54600;BME280;40500;51.084;16.958;2022-12-07T12:41:57;99661.64;;;3.10;100.00
54600;BME280;40500;51.084;16.958;2022-12-07T12:47:52;99654.20;;;3.10;100.00
54600;BME280;40500;51.084;16.958;2022-12-07T12:50:23;99655.05;;;3.08;99.99
54600;BME280;40500;51.084;16.958;2022-12-07T12:52:55;99655.92;;;3.07;100.00
54600;BME280;40500;51.084;16.958;2022-12-07T12:58:37;99649.88;;;3.08;99.76
54600;BME280;40500;51.084;16.958;2022-12-07T13:01:39;99653.86;;;3.10;99.56
54600;BME280;40500;51.084;16.958;2022-12-07T13:04:40;99655.23;;;3.09;99.75
54600;BME280;40500;51.084;16.958;2022-12-07T13:07:53;99658.52;;;3.07;99.84
54600;BME280;40500;51.084;16.958;2022-12-07T13:10:34;99655.76;;;3.08;99.69
54600;BME280;40500;51.084;16.958;2022-12-07T13:13:05;99658.17;;;3.08;99.75
54600;BME280;40500;51.084;16.958;2022-12-07T13:15:52;99659.73;;;3.06;99.67
54600;BME280;40500;51.084;16.958;2022-12-07T13:18:25;99662.83;;;3.04;99.85
54600;BME280;40500;51.084;16.958;2022-12-07T13:21:02;99667.66;;;3.04;99.88
54600;BME280;40500;51.084;16.958;2022-12-07T13:23:35;99665.42;;;3.04;100.00
54600;BME280;40500;51.084;16.958;2022-12-07T13:26:16;99666.63;;;3.04;100.00
54600;BME280;40500;51.084;16.958;2022-12-07T13:28:47;99663.52;;;3.05;100.00
54600;BME280;40500;51.084;16.958;2022-12-07T13:31:23;99665.09;;;3.06;100.00
54600;BME280;40500;51.084;16.958;2022-12-07T13:33:54;99668.38;;;3.07;100.00
54600;BME280;40500;51.084;16.958;2022-12-07T13:36:24;99664.91;;;3.06;99.98
54600;BME280;40500;51.084;16.958;2022-12-07T13:38:56;99665.63;;;3.09;100.00
54600;BME280;40500;51.084;16.958;2022-12-07T13:41:26;99668.55;;;3.10;100.00
54600;BME280;40500;51.084;16.958;2022-12-07T13:44:01;99670.27;;;3.08;100.00
54600;BME280;40500;51.084;16.958;2022-12-07T13:46:42;99671.31;;;3.07;100.00
54600;BME280;40500;51.084;16.958;2022-12-07T13:49:19;99668.20;;;3.05;99.95
54600;BME280;40500;51.084;16.958;2022-12-07T13:51:49;99668.38;;;3.03;99.97
54600;BME280;40500;51.084;16.958;2022-12-07T13:54:18;99666.11;;;3.02;99.97
54600;BME280;40500;51.084;16.958;2022-12-07T13:56:49;99664.21;;;3.00;99.95
54600;BME280;40500;51.084;16.958;2022-12-07T13:59:19;99669.91;;;3.00;99.98
54600;BME280;40500;51.084;16.958;2022-12-07T14:01:49;99669.40;;;3.00;100.00
54600;BME280;40500;51.084;16.958;2022-12-07T14:04:31;99665.59;;;3.00;100.00
54600;BME280;40500;51.084;16.958;2022-12-07T14:07:00;99667.32;;;3.00;100.00
54600;BME280;40500;51.084;16.958;2022-12-07T14:09:30;99666.98;;;2.99;99.96
54600;BME280;40500;51.084;16.958;2022-12-07T14:11:58;99671.81;;;2.98;99.97
54600;BME280;40500;51.084;16.958;2022-12-07T14:14:29;99669.73;;;2.98;99.91
54600;BME280;40500;51.084;16.958;2022-12-07T14:17:12;99667.50;;;2.98;99.92
54600;BME280;40500;51.084;16.958;2022-12-07T14:19:45;99666.28;;;2.98;99.99